Airfield :
LOGIN :

Register | Disclaimer

   EN    FR    IT 

 










Legend :    VFR   Marginal VFR   IFR   Intensive IFR   Very Intensive IFR
Visi :
Ceiling :
>= 8 km
>= 3000ft
5 to 8 km
1000 to 3000 ft
1500m to 5 km
500 to 1000 ft
800 to 1500m
200 to 500 ft
< 800m
< 200 ft
Symbols :   Thunderstorms  Fog  Heavy snow  Heavy precipitations  Wind > 20 kt
SIGMETs :     Misc.  Thunderstorms  Icing  Turbulence  Mountain Waves  Volcanic Ashes







- Airport Elevation : 1367 ft
- IATA code : FDH


EDNY - Friedrichshafen

CURRENT METAR :
  • 171420Z 02014KT 9999 -SHSN BKN024 M03/M08 Q1027

EXPIRED METARs :
  • 171350Z 03017KT 9999 BKN022 M04/M08 Q1027
  • 171320Z 03015KT 9999 -SHSN BKN023 M03/M08 Q1027
  • 171250Z 02015KT 9999 -SHSN FEW023 M03/M08 Q1027
  • 171220Z 02015KT 9999 FEW024 M04/M08 Q1027
  • 171150Z 02013KT 9999 FEW022 M04/M08 Q1028

TAF AMD TAF EDNY
Valid from the 17 at 12:00 until the 18 at 12:00 UTC


171222Z 1712/1812 02012KT 9999 SCT020
PROB40
TEMPO 1712/1718 03015G25KT
PROB30
TEMPO 1804/1811 BKN010
TEMPO 1810/1812 04015G25KT
No reported NOTAMs for that airfield.
1 SIGMET reported for the München FIR (EDMM) :
 
Severe turbulence
EDMM SIGMET 2 VALID 171300/171700 EDZM
EDMM MUNCHEN FIR SEV TURB FCST WI N5117 E01504 - N5048 E01450 - N4910 E01313 - N4809 E00935 - N4958 E01042 - N5117 E01504 FL180/245 MOV SE NC=



MET'MAP, your aeronautical weather chart ! - Copyright ORBIFLY December 2007 - Disclaimer

ORBIFLY MET'MAP TEAM :

Programming & Development : Alexandra Zaïnal
Concept & Development : Baudouin d'Aumeries
Co-Development & Prog : Marc-Olivier Méhu
Technical & hardware support : Manuel Goepfert

Contact : metmap@orbifly.com




SOURCES & CREDITS :

   NOAA